sensor_id;sensor_type;location;lat;lon;timestamp;P1;durP1;ratioP1;P2;durP2;ratioP2
18376;SDS011;9315;52.624;13.544;2023-09-18T00:00:46;7.07;;;6.13;;
18376;SDS011;9315;52.624;13.544;2023-09-18T00:03:18;6.85;;;5.10;;
18376;SDS011;9315;52.624;13.544;2023-09-18T00:05:47;6.68;;;5.32;;
18376;SDS011;9315;52.624;13.544;2023-09-18T00:08:15;6.13;;;5.00;;
18376;SDS011;9315;52.624;13.544;2023-09-18T00:10:52;8.25;;;6.50;;
18376;SDS011;9315;52.624;13.544;2023-09-18T00:13:21;9.73;;;5.88;;
18376;SDS011;9315;52.624;13.544;2023-09-18T00:15:54;11.10;;;6.38;;
18376;SDS011;9315;52.624;13.544;2023-09-18T00:18:26;8.25;;;6.75;;
18376;SDS011;9315;52.624;13.544;2023-09-18T00:20:53;5.97;;;4.80;;
18376;SDS011;9315;52.624;13.544;2023-09-18T00:23:20;6.45;;;5.47;;
18376;SDS011;9315;52.624;13.544;2023-09-18T00:25:47;8.93;;;6.13;;
18376;SDS011;9315;52.624;13.544;2023-09-18T00:28:15;5.85;;;5.25;;
18376;SDS011;9315;52.624;13.544;2023-09-18T00:30:46;9.63;;;6.15;;
18376;SDS011;9315;52.624;13.544;2023-09-18T00:33:16;8.15;;;6.10;;
18376;SDS011;9315;52.624;13.544;2023-09-18T00:35:49;7.43;;;6.15;;
18376;SDS011;9315;52.624;13.544;2023-09-18T00:38:17;8.13;;;5.40;;
18376;SDS011;9315;52.624;13.544;2023-09-18T00:40:46;9.55;;;5.88;;
18376;SDS011;9315;52.624;13.544;2023-09-18T00:43:13;6.72;;;5.75;;
18376;SDS011;9315;52.624;13.544;2023-09-18T00:45:42;7.18;;;6.15;;
18376;SDS011;9315;52.624;13.544;2023-09-18T00:48:13;8.13;;;6.28;;
18376;SDS011;9315;52.624;13.544;2023-09-18T00:50:45;7.85;;;5.90;;
18376;SDS011;9315;52.624;13.544;2023-09-18T00:53:15;7.32;;;5.75;;
18376;SDS011;9315;52.624;13.544;2023-09-18T00:55:50;8.82;;;6.50;;
18376;SDS011;9315;52.624;13.544;2023-09-18T00:58:23;7.18;;;5.53;;
18376;SDS011;9315;52.624;13.544;2023-09-18T01:00:51;7.63;;;6.38;;
18376;SDS011;9315;52.624;13.544;2023-09-18T01:03:19;6.35;;;5.60;;
18376;SDS011;9315;52.624;13.544;2023-09-18T01:05:53;8.23;;;6.15;;
18376;SDS011;9315;52.624;13.544;2023-09-18T01:08:21;9.95;;;6.65;;
18376;SDS011;9315;52.624;13.544;2023-09-18T01:11:03;7.00;;;5.53;;
18376;SDS011;9315;52.624;13.544;2023-09-18T01:17:30;8.38;;;6.18;;
18376;SDS011;9315;52.624;13.544;2023-09-18T01:20:10;7.80;;;5.57;;
18376;SDS011;9315;52.624;13.544;2023-09-18T01:22:38;9.45;;;6.32;;
18376;SDS011;9315;52.624;13.544;2023-09-18T01:25:06;7.80;;;6.57;;
18376;SDS011;9315;52.624;13.544;2023-09-18T01:27:34;8.50;;;6.45;;
18376;SDS011;9315;52.624;13.544;2023-09-18T01:30:01;7.28;;;6.18;;
18376;SDS011;9315;52.624;13.544;2023-09-18T01:32:30;9.23;;;6.00;;
18376;SDS011;9315;52.624;13.544;2023-09-18T01:34:59;6.95;;;5.65;;
18376;SDS011;9315;52.624;13.544;2023-09-18T01:37:32;6.55;;;5.88;;
18376;SDS011;9315;52.624;13.544;2023-09-18T01:40:01;7.25;;;6.53;;
18376;SDS011;9315;52.624;13.544;2023-09-18T01:42:33;10.77;;;6.22;;
18376;SDS011;9315;52.624;13.544;2023-09-18T01:45:01;9.20;;;6.35;;
18376;SDS011;9315;52.624;13.544;2023-09-18T01:47:31;7.60;;;6.18;;
18376;SDS011;9315;52.624;13.544;2023-09-18T01:49:59;12.20;;;6.70;;
18376;SDS011;9315;52.624;13.544;2023-09-18T01:52:31;8.07;;;5.22;;
18376;SDS011;9315;52.624;13.544;2023-09-18T01:55:01;10.82;;;5.68;;
18376;SDS011;9315;52.624;13.544;2023-09-18T01:57:30;7.07;;;5.78;;
18376;SDS011;9315;52.624;13.544;2023-09-18T01:59:58;8.50;;;6.07;;
18376;SDS011;9315;52.624;13.544;2023-09-18T02:02:25;9.80;;;6.25;;
18376;SDS011;9315;52.624;13.544;2023-09-18T02:05:00;7.72;;;6.38;;
18376;SDS011;9315;52.624;13.544;2023-09-18T02:07:34;7.32;;;5.63;;
18376;SDS011;9315;52.624;13.544;2023-09-18T02:10:02;6.75;;;6.05;;
18376;SDS011;9315;52.624;13.544;2023-09-18T02:12:30;6.93;;;6.20;;
18376;SDS011;9315;52.624;13.544;2023-09-18T02:14:57;5.95;;;5.35;;
18376;SDS011;9315;52.624;13.544;2023-09-18T02:17:30;7.47;;;5.90;;
18376;SDS011;9315;52.624;13.544;2023-09-18T02:19:57;6.55;;;5.50;;
18376;SDS011;9315;52.624;13.544;2023-09-18T02:22:27;6.78;;;5.93;;
18376;SDS011;9315;52.624;13.544;2023-09-18T02:24:54;6.20;;;5.60;;
18376;SDS011;9315;52.624;13.544;2023-09-18T02:27:21;7.68;;;6.47;;
18376;SDS011;9315;52.624;13.544;2023-09-18T02:29:48;7.85;;;5.72;;
18376;SDS011;9315;52.624;13.544;2023-09-18T02:32:16;6.85;;;5.93;;
18376;SDS011;9315;52.624;13.544;2023-09-18T02:34:44;8.85;;;5.78;;
18376;SDS011;9315;52.624;13.544;2023-09-18T02:37:11;7.73;;;6.60;;
18376;SDS011;9315;52.624;13.544;2023-09-18T02:39:38;7.43;;;6.20;;
18376;SDS011;9315;52.624;13.544;2023-09-18T02:42:05;8.45;;;5.70;;
18376;SDS011;9315;52.624;13.544;2023-09-18T02:44:32;6.13;;;5.20;;
18376;SDS011;9315;52.624;13.544;2023-09-18T02:47:00;7.53;;;5.72;;
18376;SDS011;9315;52.624;13.544;2023-09-18T02:49:28;7.22;;;6.32;;
18376;SDS011;9315;52.624;13.544;2023-09-18T02:51:56;6.90;;;6.20;;
18376;SDS011;9315;52.624;13.544;2023-09-18T02:54:23;6.95;;;6.03;;
18376;SDS011;9315;52.624;13.544;2023-09-18T02:56:50;6.30;;;5.70;;
18376;SDS011;9315;52.624;13.544;2023-09-18T02:59:17;8.05;;;5.45;;
18376;SDS011;9315;52.624;13.544;2023-09-18T03:01:44;5.78;;;5.05;;
18376;SDS011;9315;52.624;13.544;2023-09-18T03:04:12;7.32;;;6.60;;
18376;SDS011;9315;52.624;13.544;2023-09-18T03:06:39;5.90;;;5.30;;
18376;SDS011;9315;52.624;13.544;2023-09-18T03:09:07;7.22;;;5.93;;
18376;SDS011;9315;52.624;13.544;2023-09-18T03:11:34;7.50;;;6.47;;
18376;SDS011;9315;52.624;13.544;2023-09-18T03:14:01;8.82;;;5.20;;
18376;SDS011;9315;52.624;13.544;2023-09-18T03:16:28;11.68;;;6.40;;
18376;SDS011;9315;52.624;13.544;2023-09-18T03:18:59;7.10;;;5.73;;
18376;SDS011;9315;52.624;13.544;2023-09-18T03:21:26;7.23;;;5.93;;
18376;SDS011;9315;52.624;13.544;2023-09-18T03:23:53;6.05;;;5.00;;
18376;SDS011;9315;52.624;13.544;2023-09-18T03:26:20;6.78;;;6.15;;
18376;SDS011;9315;52.624;13.544;2023-09-18T03:28:47;6.93;;;5.40;;
18376;SDS011;9315;52.624;13.544;2023-09-18T03:31:15;6.82;;;6.13;;
18376;SDS011;9315;52.624;13.544;2023-09-18T03:33:42;8.38;;;6.88;;
18376;SDS011;9315;52.624;13.544;2023-09-18T03:36:09;8.73;;;6.75;;
18376;SDS011;9315;52.624;13.544;2023-09-18T03:38:37;6.70;;;5.93;;
18376;SDS011;9315;52.624;13.544;2023-09-18T03:41:04;6.93;;;5.82;;
18376;SDS011;9315;52.624;13.544;2023-09-18T03:43:32;7.40;;;6.43;;
18376;SDS011;9315;52.624;13.544;2023-09-18T03:46:03;6.65;;;5.95;;
18376;SDS011;9315;52.624;13.544;2023-09-18T03:48:32;8.90;;;5.60;;
18376;SDS011;9315;52.624;13.544;2023-09-18T03:51:04;8.20;;;6.38;;
18376;SDS011;9315;52.624;13.544;2023-09-18T03:53:33;8.97;;;6.57;;
18376;SDS011;9315;52.624;13.544;2023-09-18T03:56:00;9.35;;;6.05;;
18376;SDS011;9315;52.624;13.544;2023-09-18T03:58:28;8.00;;;6.33;;
18376;SDS011;9315;52.624;13.544;2023-09-18T04:00:55;8.02;;;6.32;;
18376;SDS011;9315;52.624;13.544;2023-09-18T04:03:23;6.57;;;5.60;;
18376;SDS011;9315;52.624;13.544;2023-09-18T04:05:50;6.77;;;5.83;;
18376;SDS011;9315;52.624;13.544;2023-09-18T04:08:17;8.65;;;6.43;;
18376;SDS011;9315;52.624;13.544;2023-09-18T04:10:45;6.67;;;5.93;;
18376;SDS011;9315;52.624;13.544;2023-09-18T04:13:12;7.50;;;5.97;;
18376;SDS011;9315;52.624;13.544;2023-09-18T04:15:40;6.90;;;6.20;;
18376;SDS011;9315;52.624;13.544;2023-09-18T04:18:07;9.27;;;6.67;;
18376;SDS011;9315;52.624;13.544;2023-09-18T04:20:34;7.43;;;6.57;;
18376;SDS011;9315;52.624;13.544;2023-09-18T04:25:54;8.90;;;6.60;;
18376;SDS011;9315;52.624;13.544;2023-09-18T04:28:21;10.15;;;7.30;;
18376;SDS011;9315;52.624;13.544;2023-09-18T04:30:49;7.63;;;6.75;;
18376;SDS011;9315;52.624;13.544;2023-09-18T04:33:18;8.50;;;6.87;;
18376;SDS011;9315;52.624;13.544;2023-09-18T04:35:48;9.03;;;5.83;;
18376;SDS011;9315;52.624;13.544;2023-09-18T04:38:15;7.32;;;5.63;;
18376;SDS011;9315;52.624;13.544;2023-09-18T04:40:43;7.00;;;5.13;;
18376;SDS011;9315;52.624;13.544;2023-09-18T04:43:11;6.50;;;5.90;;
18376;SDS011;9315;52.624;13.544;2023-09-18T04:45:39;11.43;;;6.03;;
18376;SDS011;9315;52.624;13.544;2023-09-18T04:48:06;8.60;;;6.77;;
18376;SDS011;9315;52.624;13.544;2023-09-18T04:50:34;7.33;;;5.40;;
18376;SDS011;9315;52.624;13.544;2023-09-18T04:53:04;9.60;;;5.93;;
18376;SDS011;9315;52.624;13.544;2023-09-18T04:55:31;11.73;;;6.93;;
18376;SDS011;9315;52.624;13.544;2023-09-18T04:57:58;11.85;;;6.32;;
18376;SDS011;9315;52.624;13.544;2023-09-18T05:00:26;8.87;;;7.30;;
18376;SDS011;9315;52.624;13.544;2023-09-18T05:02:56;12.83;;;7.60;;
18376;SDS011;9315;52.624;13.544;2023-09-18T05:05:26;11.23;;;7.00;;
18376;SDS011;9315;52.624;13.544;2023-09-18T05:07:55;9.63;;;6.80;;
18376;SDS011;9315;52.624;13.544;2023-09-18T05:10:23;7.35;;;6.00;;
18376;SDS011;9315;52.624;13.544;2023-09-18T05:12:50;7.53;;;6.47;;
18376;SDS011;9315;52.624;13.544;2023-09-18T05:15:25;8.60;;;7.30;;
18376;SDS011;9315;52.624;13.544;2023-09-18T05:17:52;11.73;;;6.28;;
18376;SDS011;9315;52.624;13.544;2023-09-18T05:20:24;8.37;;;7.20;;
18376;SDS011;9315;52.624;13.544;2023-09-18T05:22:54;10.07;;;6.90;;
18376;SDS011;9315;52.624;13.544;2023-09-18T05:25:24;9.37;;;6.03;;
18376;SDS011;9315;52.624;13.544;2023-09-18T05:28:00;8.83;;;6.97;;
18376;SDS011;9315;52.624;13.544;2023-09-18T05:30:31;10.43;;;6.80;;
18376;SDS011;9315;52.624;13.544;2023-09-18T05:33:01;5.97;;;5.37;;
18376;SDS011;9315;52.624;13.544;2023-09-18T05:35:39;10.33;;;6.97;;
18376;SDS011;9315;52.624;13.544;2023-09-18T05:38:09;9.18;;;6.07;;
18376;SDS011;9315;52.624;13.544;2023-09-18T05:40:44;11.60;;;6.47;;
18376;SDS011;9315;52.624;13.544;2023-09-18T05:43:14;7.78;;;5.55;;
18376;SDS011;9315;52.624;13.544;2023-09-18T05:45:42;8.52;;;6.00;;
18376;SDS011;9315;52.624;13.544;2023-09-18T05:48:09;9.67;;;6.00;;
18376;SDS011;9315;52.624;13.544;2023-09-18T05:50:37;8.25;;;6.20;;
18376;SDS011;9315;52.624;13.544;2023-09-18T05:53:11;6.57;;;5.78;;
18376;SDS011;9315;52.624;13.544;2023-09-18T05:55:38;8.07;;;6.20;;
18376;SDS011;9315;52.624;13.544;2023-09-18T05:58:05;7.88;;;5.85;;
18376;SDS011;9315;52.624;13.544;2023-09-18T06:00:33;5.60;;;5.00;;
18376;SDS011;9315;52.624;13.544;2023-09-18T06:03:01;8.40;;;5.50;;
18376;SDS011;9315;52.624;13.544;2023-09-18T06:05:29;8.25;;;6.22;;
18376;SDS011;9315;52.624;13.544;2023-09-18T06:07:58;9.05;;;5.82;;
18376;SDS011;9315;52.624;13.544;2023-09-18T06:10:25;8.32;;;5.65;;
18376;SDS011;9315;52.624;13.544;2023-09-18T06:12:53;8.63;;;5.63;;
18376;SDS011;9315;52.624;13.544;2023-09-18T06:15:21;9.85;;;6.40;;
18376;SDS011;9315;52.624;13.544;2023-09-18T06:17:48;11.90;;;6.07;;
18376;SDS011;9315;52.624;13.544;2023-09-18T06:20:15;8.60;;;5.80;;
18376;SDS011;9315;52.624;13.544;2023-09-18T06:22:43;8.15;;;5.75;;
18376;SDS011;9315;52.624;13.544;2023-09-18T06:25:12;9.82;;;5.68;;
18376;SDS011;9315;52.624;13.544;2023-09-18T06:27:43;8.82;;;5.18;;
18376;SDS011;9315;52.624;13.544;2023-09-18T06:30:12;13.85;;;6.35;;
18376;SDS011;9315;52.624;13.544;2023-09-18T06:32:40;6.82;;;5.47;;
18376;SDS011;9315;52.624;13.544;2023-09-18T06:35:08;8.95;;;6.22;;
18376;SDS011;9315;52.624;13.544;2023-09-18T06:37:35;6.85;;;5.63;;
18376;SDS011;9315;52.624;13.544;2023-09-18T06:40:03;6.28;;;5.13;;
18376;SDS011;9315;52.624;13.544;2023-09-18T06:42:32;7.30;;;5.90;;
18376;SDS011;9315;52.624;13.544;2023-09-18T06:44:59;6.78;;;5.78;;
18376;SDS011;9315;52.624;13.544;2023-09-18T06:47:30;6.60;;;5.40;;
18376;SDS011;9315;52.624;13.544;2023-09-18T06:49:57;6.80;;;5.95;;
18376;SDS011;9315;52.624;13.544;2023-09-18T06:52:26;8.32;;;5.40;;
18376;SDS011;9315;52.624;13.544;2023-09-18T06:54:55;7.82;;;5.90;;
18376;SDS011;9315;52.624;13.544;2023-09-18T06:57:24;9.18;;;6.00;;
18376;SDS011;9315;52.624;13.544;2023-09-18T06:59:51;9.20;;;6.40;;
18376;SDS011;9315;52.624;13.544;2023-09-18T07:02:21;6.72;;;5.22;;
18376;SDS011;9315;52.624;13.544;2023-09-18T07:04:49;11.43;;;6.03;;
18376;SDS011;9315;52.624;13.544;2023-09-18T07:07:16;8.27;;;5.15;;
18376;SDS011;9315;52.624;13.544;2023-09-18T07:09:50;7.00;;;5.20;;
18376;SDS011;9315;52.624;13.544;2023-09-18T07:12:31;8.15;;;5.53;;
18376;SDS011;9315;52.624;13.544;2023-09-18T07:15:02;7.57;;;5.15;;
18376;SDS011;9315;52.624;13.544;2023-09-18T07:17:30;7.57;;;5.50;;
18376;SDS011;9315;52.624;13.544;2023-09-18T07:19:59;5.35;;;4.78;;
18376;SDS011;9315;52.624;13.544;2023-09-18T07:22:26;8.20;;;5.30;;
18376;SDS011;9315;52.624;13.544;2023-09-18T07:24:56;7.43;;;4.93;;
18376;SDS011;9315;52.624;13.544;2023-09-18T07:27:24;10.63;;;6.00;;
18376;SDS011;9315;52.624;13.544;2023-09-18T07:29:51;8.75;;;5.40;;
18376;SDS011;9315;52.624;13.544;2023-09-18T07:32:22;12.95;;;4.90;;
18376;SDS011;9315;52.624;13.544;2023-09-18T07:35:04;6.15;;;4.85;;
18376;SDS011;9315;52.624;13.544;2023-09-18T07:37:34;5.50;;;4.43;;
18376;SDS011;9315;52.624;13.544;2023-09-18T07:40:03;11.30;;;5.40;;
18376;SDS011;9315;52.624;13.544;2023-09-18T07:42:32;16.33;;;4.60;;
18376;SDS011;9315;52.624;13.544;2023-09-18T07:45:00;5.75;;;4.85;;
18376;SDS011;9315;52.624;13.544;2023-09-18T07:47:29;9.55;;;4.80;;
18376;SDS011;9315;52.624;13.544;2023-09-18T07:49:59;13.65;;;5.03;;
18376;SDS011;9315;52.624;13.544;2023-09-18T07:52:29;9.30;;;5.20;;
18376;SDS011;9315;52.624;13.544;2023-09-18T07:54:58;6.20;;;4.50;;
18376;SDS011;9315;52.624;13.544;2023-09-18T07:57:28;6.90;;;4.72;;
18376;SDS011;9315;52.624;13.544;2023-09-18T07:59:57;6.43;;;4.70;;
18376;SDS011;9315;52.624;13.544;2023-09-18T08:02:24;6.25;;;5.05;;
18376;SDS011;9315;52.624;13.544;2023-09-18T08:04:58;7.25;;;4.65;;
18376;SDS011;9315;52.624;13.544;2023-09-18T08:07:27;5.80;;;4.60;;
18376;SDS011;9315;52.624;13.544;2023-09-18T08:09:55;6.60;;;4.90;;
18376;SDS011;9315;52.624;13.544;2023-09-18T08:12:23;12.75;;;4.90;;
18376;SDS011;9315;52.624;13.544;2023-09-18T08:14:50;5.43;;;4.10;;
18376;SDS011;9315;52.624;13.544;2023-09-18T08:17:18;6.35;;;4.10;;
18376;SDS011;9315;52.624;13.544;2023-09-18T08:19:46;7.97;;;4.88;;
18376;SDS011;9315;52.624;13.544;2023-09-18T08:22:18;5.80;;;4.10;;
18376;SDS011;9315;52.624;13.544;2023-09-18T08:24:47;5.65;;;4.30;;
18376;SDS011;9315;52.624;13.544;2023-09-18T08:27:24;8.15;;;4.82;;
18376;SDS011;9315;52.624;13.544;2023-09-18T08:29:51;7.32;;;4.22;;
18376;SDS011;9315;52.624;13.544;2023-09-18T08:32:18;10.85;;;4.20;;
18376;SDS011;9315;52.624;13.544;2023-09-18T08:34:47;7.55;;;4.28;;
18376;SDS011;9315;52.624;13.544;2023-09-18T08:37:14;8.48;;;4.40;;
18376;SDS011;9315;52.624;13.544;2023-09-18T08:39:41;7.45;;;4.32;;
18376;SDS011;9315;52.624;13.544;2023-09-18T08:42:09;5.82;;;4.80;;
18376;SDS011;9315;52.624;13.544;2023-09-18T08:44:38;5.25;;;4.05;;
18376;SDS011;9315;52.624;13.544;2023-09-18T08:47:08;9.68;;;3.95;;
18376;SDS011;9315;52.624;13.544;2023-09-18T08:49:37;7.25;;;3.72;;
18376;SDS011;9315;52.624;13.544;2023-09-18T08:52:05;6.22;;;4.40;;
18376;SDS011;9315;52.624;13.544;2023-09-18T08:54:33;6.47;;;3.97;;
18376;SDS011;9315;52.624;13.544;2023-09-18T08:57:01;5.35;;;3.90;;
18376;SDS011;9315;52.624;13.544;2023-09-18T08:59:29;7.05;;;4.03;;
18376;SDS011;9315;52.624;13.544;2023-09-18T09:01:57;7.72;;;3.80;;
18376;SDS011;9315;52.624;13.544;2023-09-18T09:04:25;5.70;;;3.72;;
18376;SDS011;9315;52.624;13.544;2023-09-18T09:06:52;6.28;;;3.58;;
18376;SDS011;9315;52.624;13.544;2023-09-18T09:09:23;4.90;;;3.50;;
18376;SDS011;9315;52.624;13.544;2023-09-18T09:11:56;4.65;;;3.95;;
18376;SDS011;9315;52.624;13.544;2023-09-18T09:14:24;4.32;;;3.40;;
18376;SDS011;9315;52.624;13.544;2023-09-18T09:16:55;3.90;;;3.10;;
18376;SDS011;9315;52.624;13.544;2023-09-18T09:19:28;6.93;;;3.60;;
18376;SDS011;9315;52.624;13.544;2023-09-18T09:22:01;4.88;;;3.40;;
18376;SDS011;9315;52.624;13.544;2023-09-18T09:24:41;7.95;;;3.60;;
18376;SDS011;9315;52.624;13.544;2023-09-18T09:27:10;8.63;;;3.40;;
18376;SDS011;9315;52.624;13.544;2023-09-18T09:29:38;5.75;;;3.45;;
18376;SDS011;9315;52.624;13.544;2023-09-18T09:32:16;3.90;;;3.17;;
18376;SDS011;9315;52.624;13.544;2023-09-18T09:34:46;4.13;;;3.42;;
18376;SDS011;9315;52.624;13.544;2023-09-18T09:37:29;3.50;;;3.20;;
18376;SDS011;9315;52.624;13.544;2023-09-18T09:40:02;4.82;;;3.10;;
18376;SDS011;9315;52.624;13.544;2023-09-18T09:42:39;4.40;;;3.42;;
18376;SDS011;9315;52.624;13.544;2023-09-18T09:45:16;3.80;;;3.20;;
18376;SDS011;9315;52.624;13.544;2023-09-18T09:47:44;4.82;;;2.90;;
18376;SDS011;9315;52.624;13.544;2023-09-18T09:50:15;3.55;;;3.13;;
18376;SDS011;9315;52.624;13.544;2023-09-18T09:52:53;6.35;;;3.33;;
18376;SDS011;9315;52.624;13.544;2023-09-18T09:57:58;6.28;;;2.92;;
18376;SDS011;9315;52.624;13.544;2023-09-18T10:00:45;4.63;;;2.60;;
18376;SDS011;9315;52.624;13.544;2023-09-18T10:03:17;6.00;;;3.05;;
18376;SDS011;9315;52.624;13.544;2023-09-18T10:05:48;5.22;;;2.75;;
18376;SDS011;9315;52.624;13.544;2023-09-18T10:08:24;6.97;;;2.72;;
18376;SDS011;9315;52.624;13.544;2023-09-18T10:10:54;6.00;;;2.35;;
18376;SDS011;9315;52.624;13.544;2023-09-18T10:13:46;7.18;;;3.20;;
18376;SDS011;9315;52.624;13.544;2023-09-18T10:16:26;8.20;;;2.90;;
18376;SDS011;9315;52.624;13.544;2023-09-18T10:21:53;3.45;;;2.30;;
18376;SDS011;9315;52.624;13.544;2023-09-18T10:25:06;3.15;;;2.63;;
18376;SDS011;9315;52.624;13.544;2023-09-18T10:27:45;5.93;;;2.63;;
18376;SDS011;9315;52.624;13.544;2023-09-18T10:30:20;4.05;;;2.50;;
18376;SDS011;9315;52.624;13.544;2023-09-18T10:32:49;6.93;;;2.55;;
18376;SDS011;9315;52.624;13.544;2023-09-18T10:35:23;3.75;;;2.22;;
18376;SDS011;9315;52.624;13.544;2023-09-18T10:37:51;8.65;;;3.05;;
18376;SDS011;9315;52.624;13.544;2023-09-18T10:40:21;5.93;;;2.80;;
18376;SDS011;9315;52.624;13.544;2023-09-18T10:42:52;6.13;;;2.83;;
18376;SDS011;9315;52.624;13.544;2023-09-18T10:45:23;6.45;;;2.72;;
18376;SDS011;9315;52.624;13.544;2023-09-18T10:47:52;7.65;;;2.88;;
18376;SDS011;9315;52.624;13.544;2023-09-18T10:50:24;3.13;;;2.60;;
18376;SDS011;9315;52.624;13.544;2023-09-18T10:52:53;7.40;;;2.78;;
18376;SDS011;9315;52.624;13.544;2023-09-18T10:55:24;7.78;;;2.90;;
18376;SDS011;9315;52.624;13.544;2023-09-18T10:57:53;8.15;;;2.58;;
18376;SDS011;9315;52.624;13.544;2023-09-18T11:00:28;6.68;;;2.70;;
18376;SDS011;9315;52.624;13.544;2023-09-18T11:03:14;4.13;;;2.85;;
18376;SDS011;9315;52.624;13.544;2023-09-18T11:05:46;2.97;;;2.78;;
18376;SDS011;9315;52.624;13.544;2023-09-18T11:08:28;7.90;;;3.25;;
18376;SDS011;9315;52.624;13.544;2023-09-18T11:11:30;4.53;;;2.90;;
18376;SDS011;9315;52.624;13.544;2023-09-18T11:14:05;4.40;;;2.60;;
18376;SDS011;9315;52.624;13.544;2023-09-18T11:16:38;4.00;;;2.63;;
18376;SDS011;9315;52.624;13.544;2023-09-18T11:19:16;4.28;;;2.70;;
18376;SDS011;9315;52.624;13.544;2023-09-18T11:21:46;3.97;;;2.42;;
18376;SDS011;9315;52.624;13.544;2023-09-18T11:24:20;4.40;;;2.53;;
18376;SDS011;9315;52.624;13.544;2023-09-18T11:26:49;9.13;;;3.33;;
18376;SDS011;9315;52.624;13.544;2023-09-18T11:29:21;6.40;;;3.15;;
18376;SDS011;9315;52.624;13.544;2023-09-18T11:31:53;6.55;;;2.92;;
18376;SDS011;9315;52.624;13.544;2023-09-18T11:34:32;4.20;;;3.13;;
18376;SDS011;9315;52.624;13.544;2023-09-18T11:37:23;4.70;;;3.10;;
18376;SDS011;9315;52.624;13.544;2023-09-18T11:39:51;9.18;;;3.13;;
18376;SDS011;9315;52.624;13.544;2023-09-18T11:42:19;4.78;;;3.22;;
18376;SDS011;9315;52.624;13.544;2023-09-18T11:44:49;7.15;;;3.53;;
18376;SDS011;9315;52.624;13.544;2023-09-18T11:47:19;7.47;;;2.83;;
18376;SDS011;9315;52.624;13.544;2023-09-18T11:49:58;7.68;;;3.20;;
18376;SDS011;9315;52.624;13.544;2023-09-18T11:52:29;6.53;;;2.90;;
18376;SDS011;9315;52.624;13.544;2023-09-18T11:54:58;8.82;;;3.53;;
18376;SDS011;9315;52.624;13.544;2023-09-18T11:57:27;4.97;;;3.05;;
18376;SDS011;9315;52.624;13.544;2023-09-18T11:59:57;6.05;;;4.57;;
18376;SDS011;9315;52.624;13.544;2023-09-18T12:02:37;3.13;;;2.65;;
18376;SDS011;9315;52.624;13.544;2023-09-18T12:05:14;4.82;;;3.17;;
18376;SDS011;9315;52.624;13.544;2023-09-18T12:07:47;9.60;;;2.65;;
18376;SDS011;9315;52.624;13.544;2023-09-18T12:10:16;5.15;;;2.90;;
18376;SDS011;9315;52.624;13.544;2023-09-18T12:12:49;7.70;;;2.80;;
18376;SDS011;9315;52.624;13.544;2023-09-18T12:15:17;7.72;;;3.13;;
18376;SDS011;9315;52.624;13.544;2023-09-18T12:17:46;3.75;;;2.85;;
18376;SDS011;9315;52.624;13.544;2023-09-18T12:20:16;7.45;;;3.28;;
18376;SDS011;9315;52.624;13.544;2023-09-18T12:22:48;6.30;;;3.40;;
18376;SDS011;9315;52.624;13.544;2023-09-18T12:25:17;5.38;;;3.10;;
18376;SDS011;9315;52.624;13.544;2023-09-18T12:27:45;3.80;;;2.97;;
18376;SDS011;9315;52.624;13.544;2023-09-18T12:30:17;4.22;;;3.03;;
18376;SDS011;9315;52.624;13.544;2023-09-18T12:32:50;4.93;;;3.00;;
18376;SDS011;9315;52.624;13.544;2023-09-18T12:35:19;6.60;;;3.20;;
18376;SDS011;9315;52.624;13.544;2023-09-18T12:37:46;3.35;;;3.00;;
18376;SDS011;9315;52.624;13.544;2023-09-18T12:40:25;4.85;;;3.05;;
18376;SDS011;9315;52.624;13.544;2023-09-18T12:43:00;7.63;;;3.10;;
18376;SDS011;9315;52.624;13.544;2023-09-18T12:45:29;5.45;;;3.38;;
18376;SDS011;9315;52.624;13.544;2023-09-18T12:47:57;7.63;;;3.50;;
18376;SDS011;9315;52.624;13.544;2023-09-18T12:50:26;5.75;;;3.67;;
18376;SDS011;9315;52.624;13.544;2023-09-18T12:52:53;5.20;;;3.28;;
18376;SDS011;9315;52.624;13.544;2023-09-18T12:55:36;7.20;;;3.30;;
18376;SDS011;9315;52.624;13.544;2023-09-18T12:58:04;8.95;;;3.40;;
18376;SDS011;9315;52.624;13.544;2023-09-18T13:00:34;7.05;;;3.33;;
18376;SDS011;9315;52.624;13.544;2023-09-18T13:03:02;12.70;;;3.80;;
18376;SDS011;9315;52.624;13.544;2023-09-18T13:05:31;8.88;;;3.40;;
18376;SDS011;9315;52.624;13.544;2023-09-18T13:08:02;11.52;;;3.90;;
18376;SDS011;9315;52.624;13.544;2023-09-18T13:10:44;5.50;;;3.50;;
18376;SDS011;9315;52.624;13.544;2023-09-18T13:13:19;4.68;;;3.25;;
18376;SDS011;9315;52.624;13.544;2023-09-18T13:15:51;8.18;;;3.72;;
18376;SDS011;9315;52.624;13.544;2023-09-18T13:18:21;9.95;;;3.85;;
18376;SDS011;9315;52.624;13.544;2023-09-18T13:20:50;7.82;;;3.60;;
18376;SDS011;9315;52.624;13.544;2023-09-18T13:23:19;5.10;;;3.28;;
18376;SDS011;9315;52.624;13.544;2023-09-18T13:25:48;6.50;;;3.50;;
18376;SDS011;9315;52.624;13.544;2023-09-18T13:28:15;10.93;;;3.95;;
18376;SDS011;9315;52.624;13.544;2023-09-18T13:30:47;14.65;;;3.85;;
18376;SDS011;9315;52.624;13.544;2023-09-18T13:33:15;13.82;;;3.78;;
18376;SDS011;9315;52.624;13.544;2023-09-18T13:35:44;8.48;;;4.32;;
18376;SDS011;9315;52.624;13.544;2023-09-18T13:38:12;8.10;;;4.40;;
18376;SDS011;9315;52.624;13.544;2023-09-18T13:40:43;6.15;;;3.63;;
18376;SDS011;9315;52.624;13.544;2023-09-18T13:43:13;6.88;;;3.67;;
18376;SDS011;9315;52.624;13.544;2023-09-18T13:45:41;10.25;;;3.47;;
18376;SDS011;9315;52.624;13.544;2023-09-18T13:48:08;8.15;;;3.33;;
18376;SDS011;9315;52.624;13.544;2023-09-18T13:50:36;12.05;;;3.83;;
18376;SDS011;9315;52.624;13.544;2023-09-18T13:53:04;12.30;;;3.45;;
18376;SDS011;9315;52.624;13.544;2023-09-18T13:55:32;6.40;;;3.05;;
18376;SDS011;9315;52.624;13.544;2023-09-18T13:58:00;5.35;;;3.40;;
18376;SDS011;9315;52.624;13.544;2023-09-18T14:00:31;14.20;;;3.25;;
18376;SDS011;9315;52.624;13.544;2023-09-18T14:02:59;17.08;;;3.95;;
18376;SDS011;9315;52.624;13.544;2023-09-18T14:05:26;8.02;;;3.55;;
18376;SDS011;9315;52.624;13.544;2023-09-18T14:07:56;7.20;;;3.50;;
18376;SDS011;9315;52.624;13.544;2023-09-18T14:10:26;10.57;;;3.50;;
18376;SDS011;9315;52.624;13.544;2023-09-18T14:12:54;9.02;;;3.30;;
18376;SDS011;9315;52.624;13.544;2023-09-18T14:15:21;11.95;;;3.60;;
18376;SDS011;9315;52.624;13.544;2023-09-18T14:17:49;13.25;;;3.42;;
18376;SDS011;9315;52.624;13.544;2023-09-18T14:20:16;10.95;;;3.40;;
18376;SDS011;9315;52.624;13.544;2023-09-18T14:22:45;7.60;;;3.10;;
18376;SDS011;9315;52.624;13.544;2023-09-18T14:25:17;12.52;;;3.63;;
18376;SDS011;9315;52.624;13.544;2023-09-18T14:27:48;9.88;;;3.38;;
18376;SDS011;9315;52.624;13.544;2023-09-18T14:30:15;8.50;;;3.05;;
18376;SDS011;9315;52.624;13.544;2023-09-18T14:32:45;5.50;;;2.80;;
18376;SDS011;9315;52.624;13.544;2023-09-18T14:35:12;5.75;;;2.67;;
18376;SDS011;9315;52.624;13.544;2023-09-18T14:37:40;5.47;;;2.95;;
18376;SDS011;9315;52.624;13.544;2023-09-18T14:40:07;8.30;;;3.13;;
18376;SDS011;9315;52.624;13.544;2023-09-18T14:42:38;8.85;;;3.10;;
18376;SDS011;9315;52.624;13.544;2023-09-18T14:45:08;5.95;;;2.80;;
18376;SDS011;9315;52.624;13.544;2023-09-18T14:47:39;8.73;;;3.08;;
18376;SDS011;9315;52.624;13.544;2023-09-18T14:50:06;7.32;;;3.13;;
18376;SDS011;9315;52.624;13.544;2023-09-18T14:52:34;13.48;;;3.30;;
18376;SDS011;9315;52.624;13.544;2023-09-18T14:55:01;5.80;;;2.88;;
18376;SDS011;9315;52.624;13.544;2023-09-18T14:57:31;6.57;;;3.15;;
18376;SDS011;9315;52.624;13.544;2023-09-18T14:59:58;6.45;;;3.30;;
18376;SDS011;9315;52.624;13.544;2023-09-18T15:02:26;8.73;;;3.60;;
18376;SDS011;9315;52.624;13.544;2023-09-18T15:04:57;9.68;;;3.10;;
18376;SDS011;9315;52.624;13.544;2023-09-18T15:07:26;11.88;;;2.88;;
18376;SDS011;9315;52.624;13.544;2023-09-18T15:09:53;6.88;;;2.58;;
18376;SDS011;9315;52.624;13.544;2023-09-18T15:12:20;10.70;;;2.88;;
18376;SDS011;9315;52.624;13.544;2023-09-18T15:14:48;9.95;;;2.67;;